createdAt,value
2023-02-25T18:33:42.227Z,70.57
2023-02-25T18:36:10.035Z,70.03
2023-02-25T18:38:37.855Z,69.45
2023-02-25T18:41:08.834Z,83.80
2023-02-25T18:43:41.983Z,95.40
2023-02-25T18:46:10.047Z,92.35
2023-02-25T18:48:38.317Z,89.35
2023-02-25T18:51:10.534Z,83.38
2023-02-25T18:53:37.477Z,81.15
2023-02-25T18:56:04.794Z,79.75
2023-02-25T18:58:31.794Z,71.40
2023-02-25T19:00:59.746Z,72.72
2023-02-25T19:03:31.352Z,65.82
2023-02-25T19:05:58.398Z,62.85
2023-02-25T19:08:26.020Z,54.15
2023-02-25T19:10:54.031Z,48.58
2023-02-25T19:13:28.760Z,59.28
2023-02-25T19:15:55.898Z,75.53
2023-02-25T19:18:23.070Z,72.00
2023-02-25T19:20:50.160Z,68.18
2023-02-25T19:23:18.333Z,69.15
2023-02-25T19:25:48.399Z,66.55
2023-02-25T19:28:16.008Z,67.13
2023-02-25T19:30:45.092Z,68.97
2023-02-25T19:33:13.382Z,67.53
2023-02-25T19:35:42.676Z,66.10
2023-02-25T19:38:15.668Z,66.00
2023-02-25T19:40:44.400Z,57.40
2023-02-25T19:43:11.957Z,56.95
2023-02-25T19:45:40.491Z,60.80
2023-02-25T19:48:08.158Z,57.92
2023-02-25T19:50:35.597Z,58.90
2023-02-25T19:53:04.182Z,59.22
2023-02-25T19:55:31.636Z,56.60
2023-02-25T19:57:58.840Z,56.67
2023-02-25T20:00:26.508Z,51.30
2023-02-25T20:02:54.618Z,55.03
2023-02-25T20:05:22.793Z,60.20
2023-02-25T20:07:49.849Z,54.85
2023-02-25T20:10:17.299Z,58.60
2023-02-25T20:12:47.368Z,59.45
2023-02-25T20:15:15.544Z,59.28
2023-02-25T20:17:43.969Z,61.88
2023-02-25T20:20:11.886Z,61.05
2023-02-25T20:22:39.535Z,62.65
2023-02-25T20:25:08.493Z,62.20
2023-02-25T20:27:37.226Z,62.45
2023-02-25T20:30:07.052Z,62.75
2023-02-25T20:32:34.511Z,58.58
2023-02-25T20:35:02.874Z,62.47
2023-02-25T20:37:36.829Z,62.42
2023-02-25T20:40:08.253Z,62.90
2023-02-25T20:42:35.951Z,60.50
2023-02-25T20:45:03.348Z,55.42
2023-02-25T20:47:36.229Z,58.75
2023-02-25T20:50:05.380Z,58.05
2023-02-25T20:52:32.626Z,56.25
2023-02-25T20:54:59.835Z,56.45
2023-02-25T20:57:27.695Z,57.55
2023-02-25T20:59:54.947Z,61.25
2023-02-25T21:02:22.098Z,60.90
2023-02-25T21:04:49.345Z,56.03
2023-02-25T21:07:16.602Z,58.55
2023-02-25T21:09:43.794Z,54.67
2023-02-25T21:12:11.306Z,54.90
2023-02-25T21:14:38.452Z,60.85
2023-02-25T21:17:09.601Z,55.22
2023-02-25T21:19:38.945Z,54.05
2023-02-25T21:22:07.324Z,53.40
2023-02-25T21:24:34.988Z,54.08
2023-02-25T21:27:02.303Z,52.97
2023-02-25T21:29:29.389Z,53.17
2023-02-25T21:31:56.882Z,50.10
2023-02-25T21:34:23.992Z,51.03
2023-02-25T21:36:51.037Z,55.85
2023-02-25T21:39:18.388Z,55.58
2023-02-25T21:41:45.455Z,54.75
2023-02-25T21:44:12.946Z,51.75
2023-02-25T21:46:41.115Z,55.28
2023-02-25T21:49:10.597Z,53.30
2023-02-25T21:51:37.931Z,50.80
2023-02-25T21:54:05.021Z,56.00
2023-02-25T21:56:32.836Z,51.17
2023-02-25T21:59:03.927Z,53.40
2023-02-25T22:01:34.047Z,52.75
2023-02-25T22:04:01.483Z,49.42
2023-02-25T22:06:29.289Z,46.88
2023-02-25T22:08:57.294Z,49.65
2023-02-25T22:11:30.070Z,51.88
2023-02-25T22:13:59.060Z,48.38
2023-02-25T22:16:27.176Z,49.55
2023-02-25T22:18:54.485Z,47.42
2023-02-25T22:21:23.685Z,47.95
2023-02-25T22:23:52.677Z,50.58
2023-02-25T22:26:22.621Z,48.10
2023-02-25T22:28:57.942Z,47.97
2023-02-25T22:31:26.965Z,47.28
2023-02-25T22:33:56.436Z,47.72
2023-02-25T22:36:23.716Z,46.83
2023-02-25T22:38:50.940Z,47.78
2023-02-25T22:41:21.051Z,42.50
2023-02-25T22:43:48.748Z,43.88
2023-02-25T22:46:44.517Z,45.78
2023-02-25T22:49:11.939Z,37.20
2023-02-25T22:51:42.238Z,42.00
2023-02-25T22:54:11.496Z,44.22
2023-02-25T22:56:39.332Z,45.50
2023-02-25T22:59:07.447Z,44.92
2023-02-25T23:01:34.948Z,46.45
2023-02-25T23:04:02.771Z,43.58
2023-02-25T23:06:43.064Z,45.00
2023-02-25T23:09:11.876Z,44.95
2023-02-25T23:11:41.714Z,49.30
2023-02-25T23:14:08.823Z,48.53
2023-02-25T23:16:40.657Z,42.95
2023-02-25T23:19:10.251Z,45.13
2023-02-25T23:21:38.782Z,43.97
2023-02-25T23:24:07.839Z,40.80
2023-02-25T23:26:40.045Z,45.95
2023-02-25T23:29:08.823Z,43.88
2023-02-25T23:31:38.812Z,42.03
2023-02-25T23:34:12.090Z,41.67
2023-02-25T23:36:42.048Z,42.40
2023-02-25T23:39:10.428Z,42.22
2023-02-25T23:41:38.377Z,39.92
2023-02-25T23:44:08.478Z,40.15
2023-02-25T23:46:36.327Z,38.33
2023-02-25T23:49:06.808Z,38.55
2023-02-25T23:51:34.252Z,41.08
2023-02-25T23:54:04.112Z,43.63
2023-02-25T23:56:32.285Z,41.53
2023-02-25T23:58:59.651Z,39.20
